Time;durP1;ratioP1;P1;durP2;ratioP2;P2;SDS_P1;SDS_P2;PMS_P1;PMS_P2;Temp;Humidity;BMP_temperature;BMP_pressure;BME280_temperature;BME280_humidity;BME280_pressure;Samples;Min_cycle;Max_cycle;Signal;HPM_P1;HPM_P2
2024/01/06 00:02:04;;;;;;;21.20;14.00;;;7.80;7.10;;;;;;5039529;28;20695;-82
2024/01/06 00:04:30;;;;;;;21.13;14.83;;;7.80;6.40;;;;;;5038995;28;20957;-83
2024/01/06 00:06:55;;;;;;;18.70;13.23;;;7.90;6.20;;;;;;5038314;28;20432;-83
2024/01/06 00:09:21;;;;;;;21.17;12.70;;;7.90;5.90;;;;;;5012786;28;20211;-83
2024/01/06 00:11:46;;;;;;;19.10;13.20;;;7.80;5.20;;;;;;5016321;28;20585;-82
2024/01/06 00:14:12;;;;;;;18.73;13.70;;;7.90;4.60;;;;;;5032596;28;20222;-83
2024/01/06 00:16:37;;;;;;;21.60;14.10;;;7.90;4.80;;;;;;5034247;28;20205;-84
2024/01/06 00:19:03;;;;;;;20.17;13.50;;;7.90;6.30;;;;;;5031364;28;20193;-81
2024/01/06 00:21:28;;;;;;;22.23;13.13;;;7.90;6.20;;;;;;5023806;28;20735;-83
2024/01/06 00:23:55;;;;;;;21.00;13.50;;;7.90;6.00;;;;;;5038981;28;20578;-83
2024/01/06 00:26:21;;;;;;;21.67;14.83;;;7.90;7.40;;;;;;5035878;28;22476;-83
2024/01/06 00:28:49;;;;;;;23.50;14.40;;;7.90;8.30;;;;;;5050769;28;20520;-83
2024/01/06 00:31:16;;;;;;;23.43;14.17;;;7.90;7.50;;;;;;5046359;28;20209;-84
2024/01/06 00:33:42;;;;;;;24.93;14.97;;;8.00;7.50;;;;;;5038319;28;21199;-83
2024/01/06 00:36:09;;;;;;;21.73;14.77;;;8.00;6.90;;;;;;5034936;28;20441;-83
2024/01/06 00:38:35;;;;;;;26.17;17.00;;;8.00;8.00;;;;;;5048504;28;20270;-83
2024/01/06 00:41:01;;;;;;;26.03;17.47;;;8.00;9.00;;;;;;5039386;28;20483;-83
2024/01/06 00:43:26;;;;;;;25.40;15.33;;;8.00;7.80;;;;;;5039546;28;20445;-83
2024/01/06 00:45:52;;;;;;;25.83;15.67;;;8.00;6.80;;;;;;5037403;28;20472;-83
2024/01/06 00:48:18;;;;;;;28.10;17.07;;;8.10;6.10;;;;;;5038448;28;20213;-83
2024/01/06 00:50:43;;;;;;;31.80;16.97;;;8.10;5.10;;;;;;5043109;28;20210;-83
2024/01/06 00:53:09;;;;;;;28.37;17.37;;;8.10;4.00;;;;;;5024934;28;20539;-83
2024/01/06 00:55:34;;;;;;;30.47;16.43;;;8.10;3.70;;;;;;5042353;28;20182;-83
2024/01/06 00:58:00;;;;;;;31.27;17.37;;;8.10;1.80;;;;;;5036542;28;20213;-83
2024/01/06 01:00:27;;;;;;;30.00;18.13;;;8.10;3.70;;;;;;5028028;28;20186;-84
2024/01/06 01:02:52;;;;;;;25.30;15.77;;;8.10;5.20;;;;;;5050713;28;20457;-83
2024/01/06 01:05:18;;;;;;;31.17;18.10;;;8.10;4.70;;;;;;5035217;28;20471;-83
2024/01/06 01:07:44;;;;;;;33.73;19.07;;;8.10;5.00;;;;;;5032807;28;20448;-84
2024/01/06 01:10:10;;;;;;;34.47;19.20;;;8.10;5.60;;;;;;5033140;28;20641;-82
2024/01/06 01:12:36;;;;;;;28.93;17.90;;;8.10;5.30;;;;;;5038627;28;20251;-83
2024/01/06 01:15:01;;;;;;;30.13;18.50;;;8.10;10.80;;;;;;5044766;28;20190;-82
2024/01/06 01:17:27;;;;;;;37.20;20.80;;;8.10;12.60;;;;;;5036822;28;20941;-83
2024/01/06 01:19:52;;;;;;;34.20;20.07;;;8.10;11.00;;;;;;5007374;28;20183;-83
2024/01/06 01:22:18;;;;;;;31.47;20.10;;;8.10;10.40;;;;;;5032974;28;20210;-83
2024/01/06 01:24:43;;;;;;;31.77;19.20;;;8.10;13.30;;;;;;5037123;28;20274;-83
2024/01/06 01:27:09;;;;;;;38.47;21.90;;;8.10;16.70;;;;;;5034974;28;20186;-84
2024/01/06 01:29:35;;;;;;;37.27;21.40;;;8.10;17.40;;;;;;5033758;28;20190;-83
2024/01/06 01:32:00;;;;;;;35.53;20.20;;;8.20;18.20;;;;;;5034344;28;20230;-83
2024/01/06 01:34:26;;;;;;;35.17;21.10;;;8.10;19.10;;;;;;5030029;28;20524;-82
2024/01/06 01:36:51;;;;;;;40.10;19.83;;;8.20;20.80;;;;;;5039683;28;20269;-83
2024/01/06 01:39:17;;;;;;;31.33;20.30;;;8.20;21.90;;;;;;5030404;28;20225;-81
2024/01/06 01:41:43;;;;;;;29.63;19.97;;;8.20;22.90;;;;;;5032162;28;20225;-81
2024/01/06 01:44:08;;;;;;;33.80;20.10;;;8.20;23.00;;;;;;5029447;28;20274;-83
2024/01/06 01:46:34;;;;;;;33.50;21.07;;;8.20;23.20;;;;;;5030924;28;20191;-84
2024/01/06 01:49:01;;;;;;;35.97;22.53;;;8.20;23.40;;;;;;5041708;28;20189;-83
2024/01/06 01:51:29;;;;;;;41.60;22.97;;;8.20;23.20;;;;;;5034485;28;20480;-83
2024/01/06 01:53:59;;;;;;;38.97;22.13;;;8.30;22.60;;;;;;5018545;28;20452;-84
2024/01/06 01:56:26;;;;;;;44.40;25.00;;;8.30;23.80;;;;;;5032599;28;20452;-83
2024/01/06 01:58:52;;;;;;;44.47;23.50;;;8.20;22.10;;;;;;5042761;28;20440;-83
2024/01/06 02:01:18;;;;;;;40.80;22.57;;;8.20;22.70;;;;;;5018655;28;20476;-83
2024/01/06 02:03:43;;;;;;;37.90;22.90;;;8.30;22.10;;;;;;5020084;28;20438;-83
2024/01/06 02:06:09;;;;;;;41.90;23.33;;;8.30;20.90;;;;;;5036413;28;20196;-82
2024/01/06 02:08:35;;;;;;;40.93;23.97;;;8.20;20.50;;;;;;5037031;28;20217;-82
2024/01/06 02:11:01;;;;;;;37.73;23.30;;;8.20;20.80;;;;;;5046721;28;20483;-84
2024/01/06 02:13:34;;;;;;;40.67;24.70;;;8.30;21.40;;;;;;5040562;28;20182;-84
2024/01/06 02:16:00;;;;;;;36.77;23.47;;;8.30;21.80;;;;;;5032217;28;20244;-85
2024/01/06 02:18:26;;;;;;;40.47;23.90;;;8.30;20.70;;;;;;5035827;28;21013;-83
2024/01/06 02:20:56;;;;;;;37.97;22.53;;;8.30;21.20;;;;;;5021746;28;20205;-83
2024/01/06 02:23:22;;;;;;;39.47;23.03;;;8.30;19.40;;;;;;5043283;28;20273;-83
2024/01/06 02:25:47;;;;;;;43.80;23.87;;;8.20;18.60;;;;;;5017059;28;20916;-84
2024/01/06 02:28:13;;;;;;;41.30;23.50;;;8.30;19.10;;;;;;5036499;28;20210;-84
2024/01/06 02:30:38;;;;;;;38.30;23.47;;;8.30;17.90;;;;;;5041922;28;20852;-81
2024/01/06 02:33:04;;;;;;;42.97;24.37;;;8.30;16.80;;;;;;5033487;28;20205;-84
2024/01/06 02:35:29;;;;;;;46.53;25.43;;;8.30;17.80;;;;;;5036329;28;20182;-83
2024/01/06 02:37:55;;;;;;;42.93;24.87;;;8.30;17.30;;;;;;5035757;28;20181;-84
2024/01/06 02:40:20;;;;;;;44.93;24.10;;;8.30;17.60;;;;;;5028665;28;20653;-83
2024/01/06 02:42:46;;;;;;;31.70;20.93;;;8.30;16.80;;;;;;5040019;28;20285;-82
2024/01/06 02:45:11;;;;;;;41.50;25.33;;;8.30;14.70;;;;;;5042109;28;20232;-83
2024/01/06 02:47:37;;;;;;;48.07;24.50;;;8.30;12.50;;;;;;5015357;28;20191;-84
2024/01/06 02:50:03;;;;;;;42.80;23.40;;;8.30;11.00;;;;;;5030536;28;20568;-84
2024/01/06 02:52:28;;;;;;;35.60;22.10;;;8.30;10.60;;;;;;5014189;28;20218;-83
2024/01/06 02:54:54;;;;;;;41.90;23.93;;;8.30;11.60;;;;;;5021077;28;20433;-83
2024/01/06 02:57:19;;;;;;;46.77;25.33;;;8.30;9.90;;;;;;5038064;28;20182;-83
2024/01/06 02:59:45;;;;;;;43.60;23.77;;;8.30;8.90;;;;;;5017789;28;20170;-83
2024/01/06 03:02:11;;;;;;;37.13;22.53;;;8.30;9.00;;;;;;5030674;28;20711;-82
2024/01/06 03:04:36;;;;;;;37.40;21.07;;;8.30;6.70;;;;;;5033805;28;20186;-83
2024/01/06 03:07:02;;;;;;;39.63;22.40;;;8.30;6.20;;;;;;5021263;28;20812;-83
2024/01/06 03:09:28;;;;;;;36.27;22.97;;;8.30;5.80;;;;;;5035511;28;20667;-82
2024/01/06 03:11:53;;;;;;;41.13;22.43;;;8.30;3.50;;;;;;5034007;28;20210;-82
2024/01/06 03:14:19;;;;;;;35.83;21.87;;;8.30;5.40;;;;;;5012207;28;20241;-84
2024/01/06 03:16:44;;;;;;;36.87;21.93;;;8.30;5.60;;;;;;5037509;28;20190;-83
2024/01/06 03:19:10;;;;;;;37.87;22.87;;;8.30;5.30;;;;;;5041170;28;20190;-83
2024/01/06 03:21:35;;;;;;;36.90;23.93;;;8.30;3.40;;;;;;5029773;28;20285;-82
2024/01/06 03:24:01;;;;;;;42.90;24.30;;;8.20;4.50;;;;;;5035916;28;20578;-85
2024/01/06 03:26:26;;;;;;;40.93;22.80;;;8.20;5.30;;;;;;5038472;28;20195;-83
2024/01/06 03:28:51;;;;;;;36.20;22.67;;;8.20;10.20;;;;;;5042180;28;20205;-85
2024/01/06 03:31:17;;;;;;;47.90;24.90;;;8.20;11.50;;;;;;5039966;28;20240;-84
2024/01/06 03:33:44;;;;;;;40.60;24.90;;;8.20;11.50;;;;;;5032692;28;20229;-83
2024/01/06 03:36:12;;;;;;;42.17;24.30;;;8.20;8.30;;;;;;5040981;28;20182;-84
2024/01/06 03:38:37;;;;;;;52.43;27.17;;;8.10;8.20;;;;;;5024914;28;20442;-84
2024/01/06 03:41:03;;;;;;;44.30;24.93;;;8.20;9.30;;;;;;5045969;28;20475;-84
2024/01/06 03:43:28;;;;;;;44.87;24.17;;;8.20;5.70;;;;;;5035552;28;20225;-83
2024/01/06 03:45:55;;;;;;;42.97;24.27;;;8.10;2.60;;;;;;5038936;28;20193;-84
2024/01/06 03:48:20;;;;;;;38.17;23.50;;;8.00;2.30;;;;;;5035826;28;20538;-84
2024/01/06 03:50:46;;;;;;;44.30;24.53;;;8.10;2.30;;;;;;5043710;28;20457;-83
2024/01/06 03:53:11;;;;;;;37.40;23.23;;;8.00;1.00;;;;;;5040344;28;20190;-83
2024/01/06 03:55:37;;;;;;;32.97;20.30;;;8.00;1.00;;;;;;5019067;28;20262;-85
2024/01/06 03:58:03;;;;;;;30.60;18.47;;;8.00;1.00;;;;;;5037526;28;20281;-84
2024/01/06 04:00:28;;;;;;;29.33;17.43;;;7.90;1.00;;;;;;5040747;28;20352;-84
2024/01/06 04:02:54;;;;;;;32.93;20.67;;;7.90;1.00;;;;;;5042357;28;20197;-82
2024/01/06 04:05:19;;;;;;;34.83;20.00;;;7.80;1.00;;;;;;5042265;28;20194;-84
2024/01/06 04:07:45;;;;;;;32.87;19.53;;;7.80;1.00;;;;;;5032904;28;20189;-83
2024/01/06 04:10:10;;;;;;;39.70;20.90;;;7.80;1.00;;;;;;5033409;28;20221;-83
2024/01/06 04:12:36;;;;;;;30.57;19.10;;;7.70;1.00;;;;;;5046926;28;20217;-83
2024/01/06 04:15:01;;;;;;;34.10;19.40;;;7.70;1.00;;;;;;5033361;28;20179;-83
2024/01/06 04:17:27;;;;;;;32.77;18.80;;;7.70;1.00;;;;;;5034677;28;20194;-83
2024/01/06 04:19:53;;;;;;;35.23;19.40;;;7.70;1.00;;;;;;5016661;28;20187;-82
2024/01/06 04:22:19;;;;;;;34.50;18.27;;;7.70;1.00;;;;;;5032553;28;20202;-82
2024/01/06 04:24:44;;;;;;;32.53;18.70;;;7.70;1.00;;;;;;5011874;28;20687;-81
2024/01/06 04:27:10;;;;;;;34.63;18.33;;;7.60;1.00;;;;;;5039580;28;20529;-83
2024/01/06 04:29:35;;;;;;;35.37;18.93;;;7.60;1.00;;;;;;5035388;28;20190;-83
2024/01/06 04:32:01;;;;;;;30.50;17.40;;;7.60;1.00;;;;;;5032074;28;20588;-83
2024/01/06 04:34:26;;;;;;;29.07;16.53;;;7.60;1.00;;;;;;5039605;28;20189;-83
2024/01/06 04:36:52;;;;;;;32.13;19.00;;;7.60;1.00;;;;;;5034294;28;20241;-83
2024/01/06 04:39:18;;;;;;;30.83;14.73;;;7.70;1.00;;;;;;5015637;28;20716;-82
2024/01/06 04:41:43;;;;;;;23.40;13.30;;;7.70;1.00;;;;;;5014732;28;20591;-83
2024/01/06 04:44:09;;;;;;;23.93;12.73;;;7.70;1.00;;;;;;5037645;28;20249;-83
2024/01/06 04:46:34;;;;;;;19.30;11.20;;;7.70;1.00;;;;;;5038047;28;20189;-82
2024/01/06 04:49:03;;;;;;;23.03;12.90;;;7.70;1.00;;;;;;5044427;28;20202;-84
2024/01/06 04:51:29;;;;;;;23.47;13.03;;;7.80;1.00;;;;;;5041242;28;20212;-84
2024/01/06 04:53:54;;;;;;;23.97;13.00;;;7.80;1.00;;;;;;5030407;28;20449;-82
2024/01/06 04:56:20;;;;;;;21.47;11.67;;;7.80;1.00;;;;;;5052526;28;20606;-85
2024/01/06 04:58:45;;;;;;;21.37;12.90;;;7.80;1.00;;;;;;5048642;28;20187;-84
2024/01/06 05:01:12;;;;;;;23.07;12.57;;;7.80;1.00;;;;;;5044141;28;20305;-83
2024/01/06 05:03:37;;;;;;;21.83;13.50;;;7.80;1.00;;;;;;5036741;28;20266;-82
2024/01/06 05:06:03;;;;;;;24.43;13.73;;;7.80;1.00;;;;;;5036516;28;20473;-82
2024/01/06 05:08:30;;;;;;;25.70;14.17;;;7.70;1.00;;;;;;5033158;28;20678;-83
2024/01/06 05:10:56;;;;;;;24.80;14.13;;;7.70;1.00;;;;;;5024883;28;20206;-84
2024/01/06 05:13:22;;;;;;;23.00;13.03;;;7.70;1.00;;;;;;5045543;28;20455;-84
2024/01/06 05:15:47;;;;;;;22.30;13.27;;;7.70;1.00;;;;;;5036982;28;20189;-83
2024/01/06 05:18:13;;;;;;;21.27;12.83;;;7.70;1.00;;;;;;5036240;28;20194;-84
2024/01/06 05:20:40;;;;;;;24.67;12.73;;;7.70;1.00;;;;;;5035884;28;20202;-84
2024/01/06 05:23:06;;;;;;;20.50;11.50;;;7.70;1.00;;;;;;5039225;28;20221;-83
2024/01/06 05:25:32;;;;;;;19.93;10.77;;;7.60;1.00;;;;;;5018445;28;20441;-83
2024/01/06 05:27:57;;;;;;;19.37;10.57;;;7.60;1.00;;;;;;5036340;28;20865;-84
2024/01/06 05:30:23;;;;;;;16.93;9.77;;;7.60;1.00;;;;;;5017456;28;20245;-83
2024/01/06 05:32:48;;;;;;;20.20;11.23;;;7.60;1.00;;;;;;5023749;28;20210;-83
2024/01/06 05:35:16;;;;;;;19.00;9.60;;;7.50;1.00;;;;;;5035331;28;20187;-84
2024/01/06 05:37:42;;;;;;;17.50;10.73;;;7.50;1.00;;;;;;5035716;28;20195;-83
2024/01/06 05:40:08;;;;;;;17.40;10.10;;;7.40;1.00;;;;;;5033072;28;20445;-83
2024/01/06 05:42:33;;;;;;;18.43;10.77;;;7.30;1.00;;;;;;5011818;28;20252;-83
2024/01/06 05:44:59;;;;;;;14.97;9.53;;;7.30;1.00;;;;;;5035097;28;20861;-83
2024/01/06 05:47:24;;;;;;;20.37;10.90;;;7.20;1.00;;;;;;5036129;28;20240;-83
2024/01/06 05:49:50;;;;;;;18.13;10.50;;;7.20;1.00;;;;;;5015217;28;20194;-84
2024/01/06 05:52:15;;;;;;;20.57;10.97;;;7.10;1.00;;;;;;5031084;28;20803;-83
2024/01/06 05:54:44;;;;;;;19.80;10.70;;;7.10;1.00;;;;;;5036612;28;20197;-84
2024/01/06 05:57:10;;;;;;;20.47;11.57;;;7.10;1.00;;;;;;5011360;28;20550;-82
2024/01/06 05:59:35;;;;;;;19.40;11.20;;;7.10;1.00;;;;;;5031454;28;20455;-82
2024/01/06 06:02:01;;;;;;;18.33;10.60;;;7.00;1.00;;;;;;5032883;28;20233;-84
2024/01/06 06:04:26;;;;;;;19.53;10.00;;;7.00;1.00;;;;;;5035646;28;20273;-83
2024/01/06 06:06:52;;;;;;;15.00;8.83;;;6.90;1.00;;;;;;5019090;28;20638;-83
2024/01/06 06:09:17;;;;;;;15.27;9.27;;;6.90;1.00;;;;;;5040283;28;20187;-83
2024/01/06 06:11:43;;;;;;;18.73;10.40;;;6.90;1.00;;;;;;5030989;28;20236;-83
2024/01/06 06:14:09;;;;;;;15.37;8.80;;;6.90;1.00;;;;;;5034762;28;20186;-83
2024/01/06 06:16:34;;;;;;;13.93;8.25;;;6.80;1.00;;;;;;5040639;28;20191;-83
2024/01/06 06:19:00;;;;;;;15.03;8.63;;;6.90;1.00;;;;;;5011452;28;20198;-84
2024/01/06 06:21:25;;;;;;;15.13;9.40;;;6.80;1.00;;;;;;5036951;28;20210;-84
2024/01/06 06:23:51;;;;;;;14.43;8.73;;;6.90;1.00;;;;;;5030977;28;20201;-83
2024/01/06 06:26:17;;;;;;;17.30;9.00;;;6.80;1.00;;;;;;5033076;28;20583;-84
2024/01/06 06:28:42;;;;;;;14.27;9.00;;;6.70;1.00;;;;;;5034296;28;20624;-83
2024/01/06 06:31:08;;;;;;;16.20;9.10;;;6.70;1.00;;;;;;5020597;28;20214;-84
2024/01/06 06:33:33;;;;;;;15.03;9.23;;;6.70;1.00;;;;;;5018149;28;20579;-83
2024/01/06 06:35:59;;;;;;;15.73;8.40;;;6.70;1.00;;;;;;5028959;28;20179;-83
2024/01/06 06:38:27;;;;;;;15.57;9.10;;;6.70;1.00;;;;;;5036368;28;20178;-84
2024/01/06 06:40:53;;;;;;;15.43;10.00;;;6.60;1.00;;;;;;5045871;28;20204;-83
2024/01/06 06:43:19;;;;;;;14.73;8.00;;;6.60;1.00;;;;;;5039017;28;20182;-83
2024/01/06 06:45:45;;;;;;;14.97;9.20;;;6.60;1.00;;;;;;5031865;28;20940;-81
2024/01/06 06:48:10;;;;;;;17.10;9.33;;;6.60;1.00;;;;;;5020624;28;20186;-84
2024/01/06 06:50:36;;;;;;;15.23;9.23;;;6.60;1.00;;;;;;5050928;28;20594;-83
2024/01/06 06:53:02;;;;;;;16.40;9.17;;;6.50;1.00;;;;;;5026936;28;20254;-84
2024/01/06 06:55:27;;;;;;;17.93;10.07;;;6.60;1.00;;;;;;5040264;28;20182;-84
2024/01/06 06:57:53;;;;;;;18.30;11.70;;;6.60;1.00;;;;;;5036857;28;21018;-83
2024/01/06 07:00:19;;;;;;;15.85;9.13;;;6.60;1.00;;;;;;5047393;28;20184;-82
2024/01/06 07:02:45;;;;;;;15.10;10.20;;;6.50;1.00;;;;;;5017306;28;20186;-83
2024/01/06 07:05:10;;;;;;;18.43;9.70;;;6.60;1.00;;;;;;5037689;28;20437;-85
2024/01/06 07:07:37;;;;;;;18.60;10.20;;;6.50;1.00;;;;;;5037175;28;20179;-83
2024/01/06 07:10:04;;;;;;;18.17;10.20;;;6.60;1.00;;;;;;5030984;28;20183;-84
2024/01/06 07:12:30;;;;;;;19.10;10.13;;;6.50;1.00;;;;;;5043870;28;20576;-84
2024/01/06 07:14:56;;;;;;;19.23;10.73;;;6.50;1.00;;;;;;5039148;28;20189;-83
2024/01/06 07:17:22;;;;;;;18.43;10.50;;;6.50;1.00;;;;;;5032131;28;20451;-83
2024/01/06 07:19:48;;;;;;;18.63;10.50;;;6.50;1.00;;;;;;5035324;28;20464;-83
2024/01/06 07:22:16;;;;;;;17.42;10.73;;;6.40;1.00;;;;;;5016139;28;20264;-82
2024/01/06 07:24:42;;;;;;;18.52;9.82;;;6.40;1.00;;;;;;5021419;28;20182;-83
2024/01/06 07:27:07;;;;;;;15.60;9.90;;;6.40;1.00;;;;;;5043851;28;20195;-84
2024/01/06 07:29:33;;;;;;;15.70;9.70;;;6.40;1.00;;;;;;5041403;28;20206;-83
2024/01/06 07:31:58;;;;;;;15.50;9.47;;;6.50;1.00;;;;;;5014835;28;20222;-83
2024/01/06 07:34:25;;;;;;;19.47;10.07;;;6.50;1.00;;;;;;5033811;28;20236;-82
2024/01/06 07:36:50;;;;;;;17.23;9.45;;;6.50;1.00;;;;;;5015193;28;20210;-83
2024/01/06 07:39:16;;;;;;;14.90;9.13;;;6.60;1.00;;;;;;5037950;28;20194;-82
2024/01/06 07:41:42;;;;;;;19.33;9.83;;;6.60;1.00;;;;;;5039441;28;20211;-83
2024/01/06 07:44:07;;;;;;;17.10;9.60;;;6.60;99.90;;;;;;5037829;28;20240;-82
2024/01/06 07:46:35;;;;;;;15.20;9.23;;;6.70;1.00;;;;;;5047968;28;20436;-83
2024/01/06 07:49:00;;;;;;;16.55;9.95;;;6.80;1.00;;;;;;5039461;28;20948;-82
2024/01/06 07:51:26;;;;;;;18.73;9.70;;;6.80;1.00;;;;;;5034243;28;20278;-83
2024/01/06 07:53:51;;;;;;;14.50;8.87;;;6.90;1.00;;;;;;5035234;28;20191;-83
2024/01/06 07:56:17;;;;;;;18.57;9.40;;;7.00;1.00;;;;;;5015793;28;20191;-83
2024/01/06 07:58:42;;;;;;;14.87;9.53;;;7.00;99.90;;;;;;5039478;28;20208;-82
2024/01/06 08:01:08;;;;;;;17.83;9.50;;;7.10;99.90;;;;;;5040784;28;20305;-82
2024/01/06 08:03:33;;;;;;;16.67;9.37;;;7.00;99.90;;;;;;5038885;28;20269;-82
2024/01/06 08:05:59;;;;;;;14.93;8.90;;;7.10;99.90;;;;;;5038364;28;20716;-83
2024/01/06 08:08:25;;;;;;;16.13;10.33;;;7.10;99.90;;;;;;5046686;28;20460;-84
2024/01/06 08:10:51;;;;;;;14.97;9.90;;;7.10;99.90;;;;;;5045352;28;20236;-84
2024/01/06 08:13:16;;;;;;;14.53;8.80;;;7.20;99.90;;;;;;5017855;28;20429;-84
2024/01/06 08:15:42;;;;;;;13.87;8.60;;;7.20;73.90;;;;;;5042109;28;20179;-84
2024/01/06 08:18:07;;;;;;;17.03;10.40;;;7.20;8.20;;;;;;5038318;28;20273;-83
2024/01/06 08:20:33;;;;;;;16.70;9.63;;;7.20;1.00;;;;;;5021872;28;20563;-84
2024/01/06 08:22:58;;;;;;;13.40;8.73;;;7.20;1.00;;;;;;5043680;28;20205;-83
2024/01/06 08:25:24;;;;;;;13.00;9.03;;;7.10;99.90;;;;;;5033202;28;20706;-82
2024/01/06 08:27:49;;;;;;;16.37;8.30;;;7.10;1.00;;;;;;5016207;28;20195;-82
2024/01/06 08:30:15;;;;;;;16.73;8.80;;;7.20;1.00;;;;;;5033598;28;20605;-84
2024/01/06 08:32:41;;;;;;;17.73;9.00;;;7.20;1.00;;;;;;5033139;28;20230;-83
2024/01/06 08:35:06;;;;;;;15.77;10.40;;;7.30;1.00;;;;;;5040306;28;20269;-83
2024/01/06 08:37:32;;;;;;;16.40;9.50;;;7.30;99.90;;;;;;5022645;28;20232;-83
2024/01/06 08:39:57;;;;;;;14.33;9.03;;;7.30;99.90;;;;;;5036653;28;20438;-82
2024/01/06 08:42:25;;;;;;;13.40;8.80;;;7.20;1.00;;;;;;5026678;28;20607;-83
2024/01/06 08:44:51;;;;;;;15.80;8.97;;;7.30;99.90;;;;;;5028379;28;20208;-83
2024/01/06 08:47:17;;;;;;;18.40;9.10;;;7.30;99.90;;;;;;5013739;28;20441;-83
2024/01/06 08:49:42;;;;;;;15.07;8.87;;;7.30;99.90;;;;;;5016144;28;20430;-82
2024/01/06 08:52:08;;;;;;;12.83;8.23;;;7.40;1.00;;;;;;5037691;28;20214;-83
2024/01/06 08:54:34;;;;;;;14.70;8.07;;;7.40;1.00;;;;;;5030095;28;20532;-83
2024/01/06 08:57:00;;;;;;;12.97;8.03;;;7.40;99.90;;;;;;5032851;28;20186;-82
2024/01/06 08:59:25;;;;;;;14.57;8.60;;;7.40;99.90;;;;;;5032916;28;20492;-81
2024/01/06 09:01:51;;;;;;;16.47;8.13;;;7.40;1.00;;;;;;5031726;28;20249;-83
2024/01/06 09:04:17;;;;;;;13.03;7.87;;;7.40;99.90;;;;;;5012845;28;20210;-83
2024/01/06 09:06:43;;;;;;;12.33;8.00;;;7.40;99.90;;;;;;5029246;28;20474;-82
2024/01/06 09:09:09;;;;;;;12.60;7.63;;;7.30;1.00;;;;;;5030776;28;20671;-82
2024/01/06 09:11:35;;;;;;;13.80;8.03;;;7.30;99.90;;;;;;5019092;28;20235;-82
2024/01/06 09:14:01;;;;;;;14.27;8.37;;;7.30;1.00;;;;;;5032451;28;20934;-80
2024/01/06 09:16:26;;;;;;;23.67;9.70;;;7.20;37.40;;;;;;5034517;28;20942;-81
2024/01/06 09:18:52;;;;;;;15.20;9.30;;;7.20;1.00;;;;;;5017551;28;20574;-80
2024/01/06 09:21:17;;;;;;;14.53;9.13;;;7.10;99.90;;;;;;5027306;28;20230;-81
2024/01/06 09:23:43;;;;;;;19.77;9.97;;;7.00;1.00;;;;;;5031791;28;20275;-80
2024/01/06 09:26:09;;;;;;;15.30;9.57;;;6.90;1.00;;;;;;5032780;28;20194;-82
2024/01/06 09:28:34;;;;;;;18.40;9.27;;;6.90;1.00;;;;;;5035460;28;20652;-81
2024/01/06 09:31:00;;;;;;;17.27;10.50;;;6.80;1.00;;;;;;5036744;28;20213;-82
2024/01/06 09:33:25;;;;;;;16.53;9.83;;;6.90;99.90;;;;;;5028218;28;20195;-82
2024/01/06 09:35:51;;;;;;;15.50;8.73;;;6.80;72.20;;;;;;5018683;28;20183;-81
2024/01/06 09:38:17;;;;;;;14.60;8.77;;;6.80;75.30;;;;;;5023959;28;20183;-83
2024/01/06 09:40:44;;;;;;;16.43;8.43;;;6.80;1.00;;;;;;5018919;28;20210;-82
2024/01/06 09:43:11;;;;;;;16.50;8.90;;;6.70;1.00;;;;;;5032822;28;20498;-82
2024/01/06 09:45:37;;;;;;;14.48;9.05;;;6.70;27.70;;;;;;5042362;28;20813;-83
2024/01/06 09:48:15;;;;;;;18.67;10.35;;;6.70;99.90;;;;;;5042853;28;20186;-83
2024/01/06 09:50:41;;;;;;;17.85;9.40;;;6.70;99.90;;;;;;5038530;28;20214;-81
2024/01/06 09:53:10;;;;;;;14.30;8.77;;;6.70;88.10;;;;;;5033219;28;20214;-82
2024/01/06 09:55:37;;;;;;;17.83;8.93;;;6.70;13.60;;;;;;5031680;28;20866;-82
2024/01/06 09:58:02;;;;;;;15.47;9.20;;;6.70;99.90;;;;;;5032687;28;20191;-83
2024/01/06 10:00:28;;;;;;;14.63;9.37;;;6.70;31.50;;;;;;5035715;28;20437;-83
2024/01/06 10:02:54;;;;;;;15.63;9.20;;;6.80;1.00;;;;;;5017133;28;20889;-82
2024/01/06 10:05:20;;;;;;;16.77;7.90;;;6.80;1.00;;;;;;5031431;28;20241;-83
2024/01/06 10:07:47;;;;;;;12.50;8.10;;;6.80;1.00;;;;;;5014985;28;20207;-83
2024/01/06 10:10:13;;;;;;;16.83;9.90;;;6.80;1.00;;;;;;5034698;28;20429;-83
2024/01/06 10:12:40;;;;;;;15.50;7.73;;;6.80;1.00;;;;;;5018200;28;21014;-82
2024/01/06 10:15:11;;;;;;;15.00;8.65;;;6.70;1.00;;;;;;5017945;28;20452;-82
2024/01/06 10:17:40;;;;;;;16.50;8.98;;;6.70;9.40;;;;;;5033177;28;20186;-82
2024/01/06 10:20:11;;;;;;;16.13;8.27;;;6.70;99.90;;;;;;5023291;28;20183;-82
2024/01/06 10:22:38;;;;;;;14.15;8.18;;;6.80;99.90;;;;;;5026968;28;20213;-81
2024/01/06 10:25:08;;;;;;;15.52;8.52;;;6.80;99.90;;;;;;5013662;28;20202;-81
2024/01/06 10:27:35;;;;;;;17.63;9.00;;;6.80;99.90;;;;;;5021042;28;20640;-81
2024/01/06 10:30:01;;;;;;;15.32;7.93;;;6.80;99.90;;;;;;5035213;28;20217;-82
2024/01/06 10:32:28;;;;;;;14.27;8.40;;;6.80;99.90;;;;;;5033907;28;20206;-81
2024/01/06 10:34:55;;;;;;;15.53;8.57;;;6.80;99.90;;;;;;5017694;28;20190;-82
2024/01/06 10:37:20;;;;;;;15.82;9.32;;;6.80;99.90;;;;;;5034250;28;20460;-83
2024/01/06 10:39:46;;;;;;;13.70;7.10;;;6.90;99.90;;;;;;5049537;28;20193;-82
2024/01/06 10:42:13;;;;;;;20.50;8.47;;;6.80;99.90;;;;;;5037451;28;20214;-83
2024/01/06 10:44:39;;;;;;;16.42;9.88;;;6.80;99.90;;;;;;5017216;28;20265;-82
2024/01/06 10:47:06;;;;;;;15.35;9.05;;;6.80;99.90;;;;;;5035114;28;20251;-83
2024/01/06 10:49:33;;;;;;;20.70;9.03;;;6.80;99.90;;;;;;5027678;28;20182;-82
2024/01/06 10:52:00;;;;;;;27.87;10.93;;;6.80;99.90;;;;;;5022685;28;20468;-82
2024/01/06 10:54:28;;;;;;;17.48;10.00;;;6.80;99.90;;;;;;5034390;28;20441;-80
2024/01/06 10:56:54;;;;;;;15.25;9.20;;;6.70;1.00;;;;;;5019454;28;20190;-82
2024/01/06 10:59:24;;;;;;;16.98;10.63;;;6.80;1.00;;;;;;5018713;28;20205;-81
2024/01/06 11:01:52;;;;;;;18.53;10.30;;;6.80;1.00;;;;;;5035173;28;20694;-82
2024/01/06 11:04:18;;;;;;;17.13;9.40;;;6.70;99.90;;;;;;5042937;28;20751;-82
2024/01/06 11:06:44;;;;;;;21.63;11.93;;;6.70;1.00;;;;;;5032829;28;20190;-82
2024/01/06 11:09:22;;;;;;;19.00;10.40;;;6.70;1.00;;;;;;5042192;28;20190;-84
2024/01/06 11:11:48;;;;;;;19.03;10.90;;;6.80;1.00;;;;;;5029995;28;20288;-82
2024/01/06 11:14:24;;;;;;;19.30;11.15;;;6.80;1.00;;;;;;5050627;28;20432;-82
2024/01/06 11:16:51;;;;;;;20.40;12.10;;;6.80;1.00;;;;;;5042495;28;20605;-82
2024/01/06 11:19:37;;;;;;;25.30;11.93;;;6.80;1.00;;;;;;5043069;28;20182;-82
2024/01/06 11:22:35;;;;;;;22.23;11.80;;;6.80;99.90;;;;;;5035114;28;20214;-83
2024/01/06 11:25:08;;;;;;;24.73;12.00;;;6.80;99.90;;;;;;5031775;28;20208;-83
2024/01/06 11:27:35;;;;;;;24.80;12.88;;;6.70;1.00;;;;;;5038382;28;20498;-82
2024/01/06 11:30:05;;;;;;;25.52;13.45;;;6.70;99.90;;;;;;5041706;28;20186;-83
2024/01/06 11:32:38;;;;;;;28.40;13.38;;;6.70;99.90;;;;;;5034918;28;20286;-82
2024/01/06 11:35:11;;;;;;;22.23;11.73;;;6.60;99.90;;;;;;5020183;28;20187;-84
2024/01/06 11:37:40;;;;;;;25.13;12.52;;;6.60;99.90;;;;;;5050284;28;20270;-84
2024/01/06 11:40:21;;;;;;;20.35;11.15;;;6.50;99.90;;;;;;5041533;28;20185;-83
2024/01/06 11:42:48;;;;;;;20.95;12.13;;;6.50;99.90;;;;;;5037649;28;20195;-83
2024/01/06 11:45:14;;;;;;;21.05;12.27;;;6.40;99.90;;;;;;5033602;28;20190;-83
2024/01/06 11:47:47;;;;;;;26.70;13.47;;;6.30;99.90;;;;;;5047967;28;20191;-82
2024/01/06 11:50:12;;;;;;;24.90;12.05;;;6.30;1.00;;;;;;5040385;28;20448;-83
2024/01/06 11:52:38;;;;;;;22.90;12.67;;;6.40;1.00;;;;;;5036809;28;20217;-84
2024/01/06 11:55:07;;;;;;;24.70;13.93;;;6.50;1.00;;;;;;5030673;28;20183;-83
2024/01/06 11:57:33;;;;;;;21.48;12.20;;;6.50;1.00;;;;;;5042820;28;20184;-83
2024/01/06 11:59:58;;;;;;;21.67;12.00;;;6.50;99.90;;;;;;5030140;28;20554;-83
2024/01/06 12:02:24;;;;;;;20.93;10.93;;;6.40;1.00;;;;;;5038058;28;20278;-83
2024/01/06 12:04:53;;;;;;;24.57;11.00;;;6.40;1.00;;;;;;5031228;28;20615;-83
2024/01/06 12:07:22;;;;;;;20.35;11.15;;;6.50;1.00;;;;;;5017472;28;20269;-83
2024/01/06 12:09:47;;;;;;;23.10;12.07;;;6.50;99.90;;;;;;5043640;28;20198;-82
2024/01/06 12:12:16;;;;;;;30.80;13.33;;;6.40;99.90;;;;;;5025971;28;20217;-83
2024/01/06 12:14:42;;;;;;;24.38;12.30;;;6.40;99.90;;;;;;5035849;28;20437;-82
2024/01/06 12:17:08;;;;;;;24.38;12.77;;;6.40;99.90;;;;;;5035556;28;20537;-81
2024/01/06 12:19:33;;;;;;;27.07;14.13;;;6.30;1.00;;;;;;5031662;28;20187;-81
2024/01/06 12:21:59;;;;;;;27.50;14.17;;;6.10;1.00;;;;;;5043491;28;20209;-81
2024/01/06 12:24:27;;;;;;;26.47;14.07;;;6.10;1.00;;;;;;5019441;28;20543;-81
2024/01/06 12:26:54;;;;;;;24.25;12.55;;;6.00;1.00;;;;;;5037206;28;20190;-82
2024/01/06 12:29:20;;;;;;;21.02;11.98;;;6.00;1.00;;;;;;5026445;28;20199;-82
2024/01/06 12:31:46;;;;;;;23.73;13.53;;;6.10;1.00;;;;;;5039263;28;20720;-82
2024/01/06 12:34:12;;;;;;;20.77;11.25;;;6.20;1.00;;;;;;5039450;28;20179;-82
2024/01/06 12:36:39;;;;;;;26.10;12.07;;;6.10;1.00;;;;;;5041113;28;20179;-84
2024/01/06 12:39:09;;;;;;;15.27;9.65;;;6.10;1.00;;;;;;5036918;28;20527;-82
2024/01/06 12:41:38;;;;;;;15.40;8.80;;;6.20;1.00;;;;;;5021660;28;20293;-84
2024/01/06 12:44:03;;;;;;;16.70;9.10;;;6.20;1.00;;;;;;5043781;28;20190;-84